createdAt,value
2023-04-29T00:00:02.651Z,0
2023-04-29T00:16:00.024Z,0
2023-04-29T00:31:02.382Z,0
2023-04-29T00:46:04.519Z,0
2023-04-29T01:00:01.710Z,0
2023-04-29T01:16:03.889Z,0
2023-04-29T01:31:01.051Z,0
2023-04-29T01:46:03.132Z,0
2023-04-29T02:00:00.094Z,0
2023-04-29T02:16:02.452Z,0
2023-04-29T02:31:04.529Z,0
2023-04-29T02:46:01.743Z,0
2023-04-29T03:00:03.780Z,0
2023-04-29T03:16:01.170Z,0
2023-04-29T03:31:03.283Z,0
2023-04-29T03:46:00.460Z,0
2023-04-29T04:00:02.518Z,5
2023-04-29T04:15:59.782Z,11
2023-04-29T04:31:02.155Z,21
2023-04-29T04:46:04.363Z,32
2023-04-29T05:00:01.424Z,45
2023-04-29T05:16:05.794Z,66
2023-04-29T05:31:00.853Z,90
2023-04-29T05:46:03.138Z,105
2023-04-29T06:00:00.226Z,115
2023-04-29T06:16:02.681Z,119
2023-04-29T06:31:04.602Z,143
2023-04-29T06:46:01.778Z,184
2023-04-29T07:00:03.756Z,240
2023-04-29T07:16:01.006Z,254
2023-04-29T07:31:03.423Z,240
2023-04-29T07:46:00.360Z,276
2023-04-29T08:00:02.171Z,308
2023-04-29T08:16:04.605Z,301
2023-04-29T08:31:01.859Z,337
2023-04-29T08:46:04.090Z,543
2023-04-29T09:00:00.955Z,733
2023-04-29T09:16:03.462Z,768
2023-04-29T09:31:00.678Z,785
2023-04-29T09:46:02.868Z,802
2023-04-29T09:59:59.871Z,819
2023-04-29T10:16:02.195Z,838
2023-04-29T10:31:04.247Z,820
2023-04-29T10:46:01.371Z,802
2023-04-29T11:00:03.541Z,877
2023-04-29T11:16:00.805Z,876
2023-04-29T11:31:02.814Z,887
2023-04-29T11:45:59.917Z,973
2023-04-29T12:00:01.967Z,1006
2023-04-29T12:16:04.275Z,874
2023-04-29T12:31:01.386Z,671
2023-04-29T12:46:03.620Z,710
2023-04-29T13:00:00.674Z,870
2023-04-29T13:16:03.025Z,604
2023-04-29T13:31:00.180Z,277
2023-04-29T13:46:02.433Z,128
2023-04-29T14:00:15.166Z,36
2023-04-29T14:16:01.733Z,40
2023-04-29T14:31:03.996Z,203
2023-04-29T14:46:01.153Z,550
2023-04-29T15:00:03.222Z,467
2023-04-29T15:16:00.671Z,431
2023-04-29T15:31:02.647Z,475
2023-04-29T15:46:04.711Z,227
2023-04-29T16:00:01.721Z,160
2023-04-29T16:16:03.948Z,106
2023-04-29T16:31:03.393Z,99
2023-04-29T16:46:03.179Z,124
2023-04-29T17:00:00.097Z,73
2023-04-29T17:16:07.824Z,41
2023-04-29T17:31:04.583Z,34
2023-04-29T17:46:01.540Z,27
2023-04-29T18:00:03.614Z,11
2023-04-29T18:16:00.869Z,1
2023-04-29T18:31:03.204Z,0
2023-04-29T18:46:00.512Z,0
2023-04-29T19:00:02.572Z,0
2023-04-29T19:15:59.774Z,0
2023-04-29T19:31:02.088Z,0
2023-04-29T19:46:04.404Z,0
2023-04-29T20:00:01.328Z,0
2023-04-29T20:16:03.597Z,0
2023-04-29T20:31:00.543Z,0
2023-04-29T20:46:02.978Z,0
2023-04-29T20:59:59.703Z,0
2023-04-29T21:16:01.980Z,0
2023-04-29T21:31:04.097Z,0
2023-04-29T21:46:01.277Z,0
2023-04-29T22:00:03.187Z,0
2023-04-29T22:16:00.388Z,0
2023-04-29T22:31:02.315Z,0
2023-04-29T22:46:04.589Z,0
2023-04-29T23:00:01.570Z,0
2023-04-29T23:16:03.741Z,0
2023-04-29T23:31:00.934Z,0
2023-04-29T23:46:03.171Z,0
